createdAt,value
2023-05-19T00:02:00.230Z,66.10
2023-05-19T00:04:27.738Z,66.23
2023-05-19T00:06:54.565Z,66.39
2023-05-19T00:09:22.185Z,66.54
2023-05-19T00:11:49.117Z,66.13
2023-05-19T00:14:16.123Z,66.64
2023-05-19T00:16:43.281Z,66.79
2023-05-19T00:19:10.067Z,67.24
2023-05-19T00:21:40.499Z,67.45
2023-05-19T00:24:07.872Z,67.21
2023-05-19T00:26:34.399Z,67.76
2023-05-19T00:29:05.465Z,67.54
2023-05-19T00:31:33.882Z,67.50
2023-05-19T00:34:01.138Z,67.55
2023-05-19T00:36:28.278Z,67.78
2023-05-19T00:38:55.861Z,67.77
2023-05-19T00:41:22.698Z,67.36
2023-05-19T00:43:50.647Z,66.97
2023-05-19T00:46:19.086Z,67.44
2023-05-19T00:48:45.925Z,67.44
2023-05-19T00:51:16.620Z,67.41
2023-05-19T00:53:48.390Z,67.58
2023-05-19T00:56:16.599Z,67.14
2023-05-19T00:58:44.001Z,66.73
2023-05-19T01:01:12.020Z,66.84
2023-05-19T01:03:40.955Z,67.17
2023-05-19T01:06:07.919Z,67.03
2023-05-19T01:08:37.074Z,67.73
2023-05-19T01:11:07.942Z,67.77
2023-05-19T01:13:35.247Z,67.98
2023-05-19T01:16:01.705Z,68.55
2023-05-19T01:19:01.585Z,68.12
2023-05-19T01:21:46.537Z,67.80
2023-05-19T01:24:34.875Z,68.06
2023-05-19T01:27:33.844Z,68.16
2023-05-19T01:30:25.471Z,68.70
2023-05-19T01:32:59.373Z,68.91
2023-05-19T01:35:26.926Z,69.53
2023-05-19T01:37:56.416Z,69.65
2023-05-19T01:40:24.789Z,69.15
2023-05-19T01:42:55.039Z,69.45
2023-05-19T01:45:23.938Z,69.74
2023-05-19T01:47:54.649Z,69.67
2023-05-19T01:50:21.345Z,69.77
2023-05-19T01:52:49.926Z,69.77
2023-05-19T01:55:16.702Z,70.27
2023-05-19T01:58:07.815Z,70.67
2023-05-19T02:00:53.951Z,70.45
2023-05-19T02:03:51.414Z,69.66
2023-05-19T02:06:31.112Z,70.53
2023-05-19T02:09:02.168Z,70.98
2023-05-19T02:11:36.393Z,71.83
2023-05-19T02:14:12.562Z,70.87
2023-05-19T02:16:39.394Z,71.33
2023-05-19T02:19:05.891Z,71.57
2023-05-19T02:21:33.582Z,72.26
2023-05-19T02:24:00.038Z,72.54
2023-05-19T02:26:26.907Z,72.73
2023-05-19T02:28:53.381Z,72.45
2023-05-19T02:31:19.830Z,73.04
2023-05-19T02:33:46.401Z,73.11
2023-05-19T02:36:14.507Z,73.06
2023-05-19T02:38:41.053Z,73.44
2023-05-19T02:41:07.595Z,73.79
2023-05-19T02:43:34.074Z,74.11
2023-05-19T02:46:00.719Z,74.59
2023-05-19T02:48:27.882Z,74.71
2023-05-19T02:50:54.362Z,74.38
2023-05-19T02:53:20.848Z,74.48
2023-05-19T02:55:47.603Z,74.48
2023-05-19T02:58:14.072Z,74.67
2023-05-19T03:00:40.635Z,74.87
2023-05-19T03:03:07.285Z,75.21
2023-05-19T03:05:33.831Z,74.55
2023-05-19T03:08:00.562Z,74.92
2023-05-19T03:10:27.884Z,74.94
2023-05-19T03:12:54.400Z,74.80
2023-05-19T03:15:23.155Z,75.09
2023-05-19T03:17:49.811Z,75.61
2023-05-19T03:20:16.583Z,75.47
2023-05-19T03:22:43.331Z,76.01
2023-05-19T03:25:10.332Z,76.48
2023-05-19T03:27:36.785Z,76.70
2023-05-19T03:30:06.325Z,77.22
2023-05-19T03:32:33.839Z,77.77
2023-05-19T03:35:00.450Z,78.52
2023-05-19T03:37:27.290Z,79.16
2023-05-19T03:39:53.745Z,79.64
2023-05-19T03:42:20.275Z,79.67
2023-05-19T03:44:46.884Z,80.02
2023-05-19T03:47:13.569Z,79.27
2023-05-19T03:49:52.154Z,79.69
2023-05-19T03:52:50.704Z,79.91
2023-05-19T03:55:29.928Z,79.90
2023-05-19T03:57:56.985Z,80.11
2023-05-19T04:00:23.824Z,80.01
2023-05-19T04:02:51.336Z,80.54
2023-05-19T04:05:17.978Z,80.39
2023-05-19T04:07:46.681Z,80.22
2023-05-19T04:10:13.741Z,80.76
2023-05-19T04:12:40.645Z,81.21
2023-05-19T04:15:08.065Z,80.41
2023-05-19T04:17:34.754Z,80.22
2023-05-19T04:20:01.984Z,80.00
2023-05-19T04:22:28.407Z,79.85
2023-05-19T04:24:54.997Z,80.55
2023-05-19T04:27:22.218Z,80.84
2023-05-19T04:29:49.553Z,80.85
2023-05-19T04:32:17.962Z,80.77
2023-05-19T04:34:46.380Z,81.24
2023-05-19T04:37:20.156Z,80.97
2023-05-19T04:39:46.953Z,80.52
2023-05-19T04:42:13.695Z,80.38
2023-05-19T04:44:40.379Z,80.41
2023-05-19T04:47:09.057Z,80.80
2023-05-19T04:49:38.966Z,80.73
2023-05-19T04:52:10.873Z,81.21
2023-05-19T04:54:38.744Z,80.99
2023-05-19T04:57:06.339Z,80.81
2023-05-19T04:59:36.557Z,81.08
2023-05-19T05:02:05.078Z,81.47
2023-05-19T05:04:31.806Z,81.55
2023-05-19T05:06:58.520Z,82.24
2023-05-19T05:09:25.672Z,82.69
2023-05-19T05:11:53.404Z,82.18
2023-05-19T05:14:20.113Z,81.77
2023-05-19T05:16:47.575Z,82.44
2023-05-19T05:19:20.194Z,82.54
2023-05-19T05:21:47.738Z,81.59
2023-05-19T05:24:16.648Z,81.55
2023-05-19T05:26:48.689Z,80.94
2023-05-19T05:29:15.891Z,80.02
2023-05-19T05:31:42.679Z,80.02
2023-05-19T05:34:10.369Z,79.22
2023-05-19T05:36:36.955Z,79.34
2023-05-19T05:39:03.719Z,79.28
2023-05-19T05:41:35.281Z,78.85
2023-05-19T05:44:07.519Z,79.06
2023-05-19T05:46:34.183Z,78.16
2023-05-19T05:49:01.291Z,77.75
2023-05-19T05:51:28.805Z,77.64
2023-05-19T05:53:56.176Z,77.35
2023-05-19T05:56:30.826Z,76.46
2023-05-19T05:58:57.717Z,76.11
2023-05-19T06:01:24.186Z,75.50
2023-05-19T06:03:51.339Z,75.30
2023-05-19T06:06:21.206Z,74.78
2023-05-19T06:08:47.935Z,74.20
2023-05-19T06:11:15.428Z,73.32
2023-05-19T06:13:42.348Z,71.98
2023-05-19T06:16:14.115Z,71.66
2023-05-19T06:18:44.641Z,72.03
2023-05-19T06:21:13.171Z,71.71
2023-05-19T06:23:41.308Z,71.40
2023-05-19T06:26:10.065Z,70.72
2023-05-19T06:28:37.458Z,71.07
2023-05-19T06:31:04.767Z,70.77
2023-05-19T06:33:41.574Z,69.74
2023-05-19T06:36:09.959Z,70.75
2023-05-19T06:38:38.691Z,70.41
2023-05-19T06:41:06.693Z,69.96
2023-05-19T06:43:33.342Z,69.30
2023-05-19T06:46:03.106Z,67.51
2023-05-19T06:48:31.678Z,67.98
2023-05-19T06:50:58.842Z,66.55
2023-05-19T06:53:26.066Z,65.85
2023-05-19T06:55:58.768Z,65.21
2023-05-19T06:58:27.979Z,65.28
2023-05-19T07:00:55.259Z,63.82
2023-05-19T07:03:24.471Z,63.84
2023-05-19T07:05:51.230Z,64.28
2023-05-19T07:08:17.983Z,64.21
2023-05-19T07:10:44.882Z,63.38
2023-05-19T07:13:14.299Z,63.43
2023-05-19T07:15:41.334Z,62.34
2023-05-19T07:18:07.837Z,62.72
2023-05-19T07:20:35.557Z,62.69
2023-05-19T07:23:02.673Z,61.73
2023-05-19T07:25:30.475Z,61.73
2023-05-19T07:27:57.378Z,59.85
2023-05-19T07:30:23.849Z,59.75
2023-05-19T07:32:50.578Z,59.41
2023-05-19T07:35:17.214Z,58.60
2023-05-19T07:37:43.706Z,59.05
2023-05-19T07:40:10.386Z,57.73
2023-05-19T07:42:36.966Z,58.02
2023-05-19T07:45:03.721Z,59.55
2023-05-19T07:47:30.932Z,58.72
2023-05-19T07:49:57.459Z,58.07
2023-05-19T07:52:23.937Z,57.29
2023-05-19T07:54:50.532Z,57.71
2023-05-19T07:57:18.910Z,57.25
2023-05-19T07:59:45.999Z,56.31
2023-05-19T08:02:12.463Z,54.80
2023-05-19T08:04:39.091Z,54.39
2023-05-19T08:07:05.577Z,54.53
2023-05-19T08:09:32.083Z,55.68
2023-05-19T08:11:58.598Z,56.95
2023-05-19T08:14:25.190Z,57.93
2023-05-19T08:16:51.797Z,57.44
2023-05-19T08:19:19.616Z,55.93
2023-05-19T08:21:46.197Z,55.65
2023-05-19T08:24:12.706Z,55.56
2023-05-19T08:26:39.200Z,54.09
2023-05-19T08:29:05.628Z,55.20
2023-05-19T08:31:32.521Z,55.87
2023-05-19T08:33:59.211Z,55.51
2023-05-19T08:36:25.800Z,54.96
2023-05-19T08:38:52.375Z,54.25
2023-05-19T08:41:18.901Z,53.81
2023-05-19T08:43:46.058Z,53.49
2023-05-19T08:46:14.929Z,53.81
2023-05-19T08:48:43.209Z,52.03
2023-05-19T08:51:32.101Z,51.59
2023-05-19T08:54:14.539Z,50.97
2023-05-19T08:56:43.576Z,50.11
2023-05-19T08:59:11.380Z,49.82
2023-05-19T09:01:39.667Z,47.75
2023-05-19T09:04:06.848Z,46.03
2023-05-19T09:06:33.430Z,45.77
2023-05-19T09:08:59.926Z,43.90
2023-05-19T09:11:27.508Z,44.85
2023-05-19T09:13:54.164Z,44.21
2023-05-19T09:16:21.221Z,43.51
2023-05-19T09:18:56.285Z,43.73
2023-05-19T09:21:34.006Z,43.91
2023-05-19T09:24:09.540Z,43.12
2023-05-19T09:26:40.636Z,42.46
2023-05-19T09:29:21.369Z,42.17
2023-05-19T09:31:50.554Z,41.23
2023-05-19T09:34:17.816Z,40.63
2023-05-19T09:36:46.835Z,41.93
2023-05-19T09:39:18.069Z,41.01
2023-05-19T09:41:46.087Z,39.22
2023-05-19T09:44:34.963Z,39.23
2023-05-19T09:47:02.165Z,39.01
2023-05-19T09:49:30.136Z,38.11
2023-05-19T09:52:03.471Z,39.27
2023-05-19T09:54:32.120Z,39.06
2023-05-19T09:56:59.284Z,38.85
2023-05-19T09:59:30.475Z,38.45
2023-05-19T10:02:00.646Z,38.76
2023-05-19T10:04:29.401Z,37.89
2023-05-19T10:06:59.572Z,37.93
2023-05-19T10:09:28.905Z,37.59
2023-05-19T10:11:57.294Z,38.38
2023-05-19T10:14:28.440Z,38.99
2023-05-19T10:16:57.208Z,37.08
2023-05-19T10:19:25.858Z,36.85
2023-05-19T10:21:53.265Z,36.52
2023-05-19T10:24:21.422Z,36.35
2023-05-19T10:26:56.363Z,37.42
2023-05-19T10:29:30.090Z,37.38
2023-05-19T10:32:01.056Z,36.98
2023-05-19T10:34:50.510Z,35.62
2023-05-19T10:37:31.835Z,35.97
2023-05-19T10:39:58.808Z,34.83
2023-05-19T10:42:50.402Z,35.93
2023-05-19T10:45:22.752Z,37.39
2023-05-19T10:47:54.116Z,37.63
2023-05-19T10:50:20.711Z,37.97
2023-05-19T10:52:55.504Z,38.54
2023-05-19T10:55:44.915Z,38.20
2023-05-19T10:58:11.689Z,38.25
2023-05-19T11:00:39.507Z,38.05
2023-05-19T11:03:17.978Z,38.25
2023-05-19T11:05:46.289Z,37.81
2023-05-19T11:08:13.163Z,36.27
2023-05-19T11:10:39.699Z,35.04
2023-05-19T11:13:07.585Z,35.01
2023-05-19T11:15:36.851Z,35.29
2023-05-19T11:18:04.653Z,35.67
2023-05-19T11:20:34.630Z,36.16
2023-05-19T11:23:09.647Z,34.77
2023-05-19T11:25:43.376Z,36.02
2023-05-19T11:28:16.830Z,36.16
2023-05-19T11:30:46.349Z,36.96
2023-05-19T11:33:13.915Z,37.49
2023-05-19T11:35:41.346Z,37.15
2023-05-19T11:38:07.920Z,37.60
2023-05-19T11:40:34.464Z,36.46
2023-05-19T11:43:01.825Z,36.44
2023-05-19T11:45:33.297Z,36.60
2023-05-19T11:48:03.114Z,37.77
2023-05-19T11:50:31.293Z,37.29
2023-05-19T11:53:00.822Z,36.84
2023-05-19T11:55:27.873Z,36.86
2023-05-19T11:58:04.957Z,34.76
2023-05-19T12:00:39.088Z,34.13
2023-05-19T12:03:06.446Z,33.96
2023-05-19T12:05:39.173Z,35.11
2023-05-19T12:08:08.735Z,35.40
2023-05-19T12:10:35.795Z,36.29
2023-05-19T12:13:03.016Z,35.45
2023-05-19T12:15:31.572Z,35.72
2023-05-19T12:18:00.163Z,36.51
2023-05-19T12:20:29.328Z,36.45
2023-05-19T12:22:56.457Z,37.13
2023-05-19T12:25:24.272Z,37.01
2023-05-19T12:27:52.806Z,37.15
2023-05-19T12:30:26.039Z,36.76
2023-05-19T12:32:54.183Z,36.95
2023-05-19T12:35:23.237Z,35.93
2023-05-19T12:37:50.574Z,34.63
2023-05-19T12:40:17.223Z,34.61
2023-05-19T12:42:48.603Z,35.29
2023-05-19T12:45:15.355Z,35.20
2023-05-19T12:47:41.983Z,34.81
2023-05-19T12:50:10.169Z,34.48
2023-05-19T12:52:44.011Z,33.46
2023-05-19T12:55:11.918Z,35.40
2023-05-19T12:57:43.386Z,35.19
2023-05-19T13:00:25.082Z,34.93
2023-05-19T13:03:02.678Z,35.20
2023-05-19T13:05:31.051Z,34.33
2023-05-19T13:08:00.310Z,33.75
2023-05-19T13:10:28.209Z,33.96
2023-05-19T13:12:56.183Z,32.27
2023-05-19T13:15:24.560Z,32.38
2023-05-19T13:17:51.199Z,32.08
2023-05-19T13:20:19.795Z,32.26
2023-05-19T13:22:50.225Z,32.35
2023-05-19T13:25:17.181Z,32.51
2023-05-19T13:27:48.359Z,32.67
2023-05-19T13:30:16.140Z,32.41
2023-05-19T13:32:42.656Z,32.89
2023-05-19T13:35:09.823Z,32.98
2023-05-19T13:37:36.541Z,32.11
2023-05-19T13:40:03.983Z,32.16
2023-05-19T13:42:32.866Z,31.10
2023-05-19T13:44:59.354Z,31.24
2023-05-19T13:47:26.183Z,32.21
2023-05-19T13:49:53.163Z,32.15
2023-05-19T13:52:22.746Z,32.01
2023-05-19T13:54:49.939Z,31.15
2023-05-19T13:57:16.605Z,32.50
2023-05-19T14:00:00.286Z,33.11
2023-05-19T14:02:28.056Z,31.54
2023-05-19T14:04:55.848Z,31.71
2023-05-19T14:07:22.409Z,33.23
2023-05-19T14:09:50.988Z,32.96
2023-05-19T14:12:17.639Z,33.49
2023-05-19T14:14:44.608Z,33.40
2023-05-19T14:17:11.871Z,33.17
2023-05-19T14:19:38.289Z,33.67
2023-05-19T14:22:04.972Z,33.60
2023-05-19T14:24:31.606Z,32.93
2023-05-19T14:26:58.086Z,32.17
2023-05-19T14:29:24.539Z,32.44
2023-05-19T14:31:51.174Z,31.82
2023-05-19T14:34:20.818Z,31.76
2023-05-19T14:36:48.369Z,32.18
2023-05-19T14:39:15.052Z,32.44
2023-05-19T14:41:41.685Z,31.87
2023-05-19T14:44:08.196Z,31.88
2023-05-19T14:46:34.694Z,32.44
2023-05-19T14:49:02.051Z,32.61
2023-05-19T14:51:28.519Z,32.21
2023-05-19T14:53:54.978Z,32.74
2023-05-19T14:56:22.550Z,32.49
2023-05-19T14:58:49.009Z,33.02
2023-05-19T15:01:15.815Z,33.54
2023-05-19T15:03:42.633Z,33.07
2023-05-19T15:06:10.566Z,33.15
2023-05-19T15:08:41.438Z,34.01
2023-05-19T15:11:08.113Z,33.61
2023-05-19T15:13:34.650Z,32.86
2023-05-19T15:16:16.337Z,32.21
2023-05-19T15:18:44.922Z,31.67
2023-05-19T15:21:11.468Z,30.61
2023-05-19T15:23:37.946Z,30.14
2023-05-19T15:26:04.591Z,30.08
2023-05-19T15:28:31.088Z,30.27
2023-05-19T15:30:57.543Z,30.44
2023-05-19T15:33:24.005Z,30.58
2023-05-19T15:35:52.094Z,31.51
2023-05-19T15:38:19.281Z,31.75
2023-05-19T15:40:46.738Z,31.95
2023-05-19T15:43:13.533Z,32.63
2023-05-19T15:45:39.980Z,33.56
2023-05-19T15:48:06.767Z,34.07
2023-05-19T15:50:33.481Z,33.56
2023-05-19T15:53:00.375Z,33.13
2023-05-19T15:55:26.915Z,32.42
2023-05-19T15:57:53.383Z,32.74
2023-05-19T16:00:20.452Z,32.66
2023-05-19T16:02:47.464Z,32.71
2023-05-19T16:05:14.061Z,32.91
2023-05-19T16:07:42.155Z,33.40
2023-05-19T16:10:09.307Z,33.70
2023-05-19T16:12:36.606Z,32.78
2023-05-19T16:15:03.563Z,33.33
2023-05-19T16:17:30.167Z,33.35
2023-05-19T16:19:56.732Z,33.73
2023-05-19T16:22:24.821Z,34.28
2023-05-19T16:24:52.226Z,33.99
2023-05-19T16:27:19.042Z,33.17
2023-05-19T16:29:46.212Z,32.77
2023-05-19T16:32:12.890Z,33.28
2023-05-19T16:34:39.714Z,32.67
2023-05-19T16:37:06.189Z,33.84
2023-05-19T16:39:32.856Z,33.85
2023-05-19T16:41:59.395Z,33.92
2023-05-19T16:44:26.235Z,34.14
2023-05-19T16:46:52.737Z,34.09
2023-05-19T16:49:19.248Z,34.62
2023-05-19T16:51:48.193Z,34.88
2023-05-19T16:54:15.682Z,34.93
2023-05-19T16:56:42.924Z,34.72
2023-05-19T16:59:10.164Z,35.10
2023-05-19T17:01:36.664Z,35.99
2023-05-19T17:04:03.225Z,35.85
2023-05-19T17:06:29.732Z,34.89
2023-05-19T17:08:56.169Z,35.44
2023-05-19T17:11:22.883Z,35.45
2023-05-19T17:13:49.336Z,34.58
2023-05-19T17:16:16.123Z,35.17
2023-05-19T17:18:43.948Z,35.29
2023-05-19T17:21:10.899Z,35.17
2023-05-19T17:23:38.096Z,35.72
2023-05-19T17:26:05.116Z,35.54
2023-05-19T17:28:31.719Z,35.31
2023-05-19T17:30:58.337Z,36.08
2023-05-19T17:33:25.005Z,35.90
2023-05-19T17:35:51.641Z,36.33
2023-05-19T17:38:18.360Z,36.88
2023-05-19T17:40:45.068Z,36.69
2023-05-19T17:43:11.683Z,37.33
2023-05-19T17:45:38.116Z,36.65
2023-05-19T17:48:05.093Z,36.74
2023-05-19T17:50:31.966Z,36.99
2023-05-19T17:52:59.005Z,36.92
2023-05-19T17:55:29.714Z,37.49
2023-05-19T17:57:56.760Z,37.56
2023-05-19T18:00:23.781Z,37.70
2023-05-19T18:02:51.143Z,37.42
2023-05-19T18:05:18.338Z,37.54
2023-05-19T18:07:45.354Z,37.47
2023-05-19T18:10:15.193Z,37.79
2023-05-19T18:12:41.754Z,38.22
2023-05-19T18:15:08.575Z,38.21
2023-05-19T18:17:35.092Z,37.83
2023-05-19T18:20:01.973Z,38.82
2023-05-19T18:22:28.427Z,38.72
2023-05-19T18:24:55.290Z,38.99
2023-05-19T18:27:21.727Z,39.10
2023-05-19T18:29:48.406Z,38.90
2023-05-19T18:32:16.910Z,39.20
2023-05-19T18:34:43.826Z,39.67
2023-05-19T18:37:10.279Z,39.60
2023-05-19T18:39:36.971Z,40.20
2023-05-19T18:42:03.478Z,40.43
2023-05-19T18:44:29.988Z,40.47
2023-05-19T18:46:56.478Z,40.20
2023-05-19T18:49:24.707Z,40.63
2023-05-19T18:51:51.194Z,40.78
2023-05-19T18:54:17.707Z,41.34
2023-05-19T18:56:44.207Z,41.73
2023-05-19T18:59:11.158Z,41.64
2023-05-19T19:01:37.830Z,42.50
2023-05-19T19:04:04.683Z,43.00
2023-05-19T19:06:31.238Z,43.62
2023-05-19T19:08:57.726Z,43.66
2023-05-19T19:11:24.159Z,43.46
2023-05-19T19:13:55.437Z,43.90
2023-05-19T19:16:22.250Z,44.10
2023-05-19T19:18:48.803Z,45.24
2023-05-19T19:21:15.451Z,45.16
2023-05-19T19:23:41.956Z,44.97
2023-05-19T19:26:09.456Z,44.97
2023-05-19T19:28:36.368Z,45.21
2023-05-19T19:31:02.958Z,45.17
2023-05-19T19:33:29.430Z,45.29
2023-05-19T19:35:55.943Z,44.83
2023-05-19T19:38:22.750Z,44.59
2023-05-19T19:40:51.457Z,45.28
2023-05-19T19:43:18.599Z,45.26
2023-05-19T19:45:45.348Z,45.70
2023-05-19T19:48:12.113Z,45.29
2023-05-19T19:50:38.743Z,45.53
2023-05-19T19:53:05.376Z,45.51
2023-05-19T19:55:31.803Z,45.05
2023-05-19T19:57:58.353Z,45.48
2023-05-19T20:00:24.804Z,45.41
2023-05-19T20:03:04.341Z,45.75
2023-05-19T20:05:31.956Z,45.63
2023-05-19T20:07:58.385Z,45.68
2023-05-19T20:10:24.906Z,46.23
2023-05-19T20:12:51.862Z,46.16
2023-05-19T20:15:18.670Z,46.25
2023-05-19T20:17:45.690Z,46.40
2023-05-19T20:20:12.643Z,46.59
2023-05-19T20:22:39.091Z,46.90
2023-05-19T20:25:06.127Z,47.02
2023-05-19T20:27:32.615Z,46.67
2023-05-19T20:29:59.139Z,46.86
2023-05-19T20:32:25.683Z,47.23
2023-05-19T20:34:52.239Z,47.21
2023-05-19T20:37:18.740Z,47.32
2023-05-19T20:39:45.354Z,47.00
2023-05-19T20:42:12.221Z,47.33
2023-05-19T20:44:38.679Z,47.40
2023-05-19T20:47:07.808Z,47.26
2023-05-19T20:49:34.649Z,47.52
2023-05-19T20:52:01.187Z,48.15
2023-05-19T20:54:27.625Z,48.32
2023-05-19T20:56:54.131Z,48.10
2023-05-19T20:59:20.738Z,48.44
2023-05-19T21:01:47.613Z,48.11
2023-05-19T21:04:14.120Z,48.69
2023-05-19T21:06:40.624Z,48.92
2023-05-19T21:09:07.213Z,49.06
2023-05-19T21:11:34.175Z,49.75
2023-05-19T21:14:04.195Z,49.68
2023-05-19T21:16:31.321Z,50.31
2023-05-19T21:18:57.940Z,50.67
2023-05-19T21:21:24.677Z,50.69
2023-05-19T21:23:51.123Z,50.95
2023-05-19T21:26:18.030Z,51.71
2023-05-19T21:28:44.910Z,52.37
2023-05-19T21:31:12.282Z,52.22
2023-05-19T21:33:38.932Z,52.41
2023-05-19T21:36:05.902Z,53.10
2023-05-19T21:38:32.418Z,53.60
2023-05-19T21:40:58.981Z,53.54
2023-05-19T21:43:25.902Z,54.27
2023-05-19T21:45:52.356Z,54.88
2023-05-19T21:48:19.461Z,55.52
2023-05-19T21:50:51.217Z,55.86
2023-05-19T21:53:17.923Z,56.24
2023-05-19T21:55:44.746Z,56.94
2023-05-19T21:58:12.164Z,57.23
2023-05-19T22:00:38.832Z,57.89
2023-05-19T22:03:05.463Z,58.25
2023-05-19T22:05:35.097Z,58.53
2023-05-19T22:08:28.110Z,58.85
2023-05-19T22:10:54.890Z,59.75
2023-05-19T22:13:21.816Z,59.78
2023-05-19T22:15:48.689Z,60.53
2023-05-19T22:18:15.226Z,60.59
2023-05-19T22:20:41.740Z,60.75
2023-05-19T22:23:08.286Z,61.78
2023-05-19T22:25:34.804Z,62.26
2023-05-19T22:28:01.265Z,62.26
2023-05-19T22:30:27.837Z,62.88
2023-05-19T22:32:54.329Z,63.29
2023-05-19T22:35:21.244Z,63.64
2023-05-19T22:37:47.812Z,63.64
2023-05-19T22:40:14.320Z,64.59
2023-05-19T22:42:40.896Z,63.96
2023-05-19T22:45:07.952Z,64.07
2023-05-19T22:47:34.415Z,64.36
2023-05-19T22:50:00.973Z,64.97
2023-05-19T22:52:27.436Z,65.24
2023-05-19T22:54:53.920Z,65.42
2023-05-19T22:57:20.603Z,65.56
2023-05-19T22:59:47.069Z,65.77
2023-05-19T23:02:13.491Z,66.47
2023-05-19T23:04:40.086Z,66.62
2023-05-19T23:07:06.557Z,66.93
2023-05-19T23:09:33.015Z,66.86
2023-05-19T23:11:59.442Z,67.33
2023-05-19T23:14:25.967Z,66.99
2023-05-19T23:16:52.450Z,67.10
2023-05-19T23:19:20.485Z,67.45
2023-05-19T23:21:48.922Z,67.89
2023-05-19T23:24:16.201Z,67.68
2023-05-19T23:26:46.540Z,68.44
2023-05-19T23:29:13.946Z,68.51
2023-05-19T23:31:41.307Z,68.72
2023-05-19T23:34:08.131Z,68.76
2023-05-19T23:36:34.699Z,69.71
2023-05-19T23:39:01.164Z,68.82
2023-05-19T23:41:28.791Z,68.79
2023-05-19T23:43:55.322Z,68.97
2023-05-19T23:46:22.413Z,69.08
2023-05-19T23:48:49.019Z,69.05
2023-05-19T23:51:15.810Z,69.70
2023-05-19T23:53:42.235Z,69.36
2023-05-19T23:56:08.725Z,69.58
2023-05-19T23:58:35.215Z,69.92
